PWSweather.com
Personal Weather Stations
Station Observations
J24K28P63
Vysocina, PocatkyCZ 39464

VysocinaPocatkyCZ 39464

Lat: 49.2594238, Lon: 15.2331769

Elevation: 2011

Station Type: Vantage Pro2+

http://meteo-jirkalina.com

High Low Average
Temperature 80.5°F26.9°C 32.2°F0.1°C 64.6°F18.1°C
Dew Point 57.7°F14.3°C 30.4°F-0.9°C 52.3°F11.3°C
Winds 8.0 mph 12.9 kmh Calm Calm 2.0 mph SW3.2 kmh SW
Wind Gusts 14.0 mph22.5 kmh -- 4.0 mph6.4 kmh
Humidity 96% 37% 68%
Pressure 30.29 in1025.7 mb 30.17 in1021.7 mb -
Precipitation 0.01 in0.3 mm - -
Hour Temp Dew Point Humidity Winds Wind Gusts Pressure Precip Precip Rate Daily Precip Total
12:00 AM 53.6°F12.0°C 49.2°F9.6°C 85% Calm Calm 1.0 mph1.6 kmh 30.22 in1023.4 mb 0.00 in0.0 mm 0.00 in0.0 mm 0.00 in0.0 mm
12:10 AM 53.4°F11.9°C 49.3°F9.6°C 86% 1.0 mph W1.6 kmh W 2.0 mph3.2 kmh 30.22 in1023.4 mb 0.00 in0.0 mm 0.00 in0.0 mm 0.00 in0.0 mm
12:20 AM 53.3°F11.8°C 49.2°F9.6°C 86% Calm Calm 1.0 mph1.6 kmh 30.22 in1023.4 mb 0.00 in0.0 mm 0.00 in0.0 mm 0.00 in0.0 mm
12:30 AM 53.6°F12.0°C 49.6°F9.8°C 86% Calm Calm -- 30.22 in1023.4 mb 0.00 in0.0 mm 0.00 in0.0 mm 0.00 in0.0 mm
12:40 AM 54.1°F12.3°C 50.0°F10.0°C 86% 1.0 mph W1.6 kmh W 2.0 mph3.2 kmh 30.22 in1023.4 mb 0.00 in0.0 mm 0.00 in0.0 mm 0.00 in0.0 mm
12:50 AM 54.6°F12.6°C 50.5°F10.3°C 86% Calm Calm 2.0 mph3.2 kmh 30.22 in1023.4 mb 0.00 in0.0 mm 0.00 in0.0 mm 0.00 in0.0 mm
01:00 AM 54.7°F12.6°C 50.2°F10.1°C 85% Calm Calm 1.0 mph1.6 kmh 30.22 in1023.4 mb 0.00 in0.0 mm 0.00 in0.0 mm 0.00 in0.0 mm
01:10 AM 54.7°F12.6°C 50.3°F10.2°C 85% Calm Calm 1.0 mph1.6 kmh 30.23 in1023.7 mb 0.00 in0.0 mm 0.00 in0.0 mm 0.00 in0.0 mm
01:20 AM 54.6°F12.6°C 49.9°F9.9°C 84% 1.0 mph W1.6 kmh W 2.0 mph3.2 kmh 30.23 in1023.7 mb 0.00 in0.0 mm 0.00 in0.0 mm 0.00 in0.0 mm
01:30 AM 54.2°F12.3°C 49.5°F9.7°C 84% 1.0 mph W1.6 kmh W 2.0 mph3.2 kmh 30.23 in1023.7 mb 0.00 in0.0 mm 0.00 in0.0 mm 0.00 in0.0 mm
01:40 AM 53.9°F12.2°C 49.5°F9.7°C 85% Calm Calm 1.0 mph1.6 kmh 30.23 in1023.7 mb 0.00 in0.0 mm 0.00 in0.0 mm 0.00 in0.0 mm
01:50 AM 53.1°F11.7°C 49.3°F9.6°C 87% Calm Calm 2.0 mph3.2 kmh 30.23 in1023.7 mb 0.00 in0.0 mm 0.00 in0.0 mm 0.00 in0.0 mm
02:00 AM 52.5°F11.4°C 49.1°F9.5°C 88% 1.0 mph W1.6 kmh W 2.0 mph3.2 kmh 30.23 in1023.7 mb 0.00 in0.0 mm 0.00 in0.0 mm 0.00 in0.0 mm
02:10 AM 52.1°F11.2°C 48.7°F9.3°C 88% Calm Calm 2.0 mph3.2 kmh 30.23 in1023.7 mb 0.00 in0.0 mm 0.00 in0.0 mm 0.00 in0.0 mm
02:20 AM 51.8°F11.0°C 48.7°F9.3°C 89% 1.0 mph W1.6 kmh W 2.0 mph3.2 kmh 30.23 in1023.7 mb 0.00 in0.0 mm 0.00 in0.0 mm 0.00 in0.0 mm
02:30 AM 51.6°F10.9°C 48.8°F9.3°C 90% 1.0 mph W1.6 kmh W 2.0 mph3.2 kmh 30.23 in1023.7 mb 0.00 in0.0 mm 0.00 in0.0 mm 0.00 in0.0 mm
02:40 AM 51.2°F10.7°C 48.3°F9.1°C 90% 1.0 mph W1.6 kmh W 3.0 mph4.8 kmh 30.23 in1023.7 mb 0.00 in0.0 mm 0.00 in0.0 mm 0.00 in0.0 mm
02:50 AM 50.9°F10.5°C 48.4°F9.1°C 91% 1.0 mph W1.6 kmh W 3.0 mph4.8 kmh 30.23 in1023.7 mb 0.00 in0.0 mm 0.00 in0.0 mm 0.00 in0.0 mm
03:00 AM 50.7°F10.4°C 48.2°F9.0°C 91% 1.0 mph W1.6 kmh W 3.0 mph4.8 kmh 30.23 in1023.7 mb 0.00 in0.0 mm 0.00 in0.0 mm 0.00 in0.0 mm
03:10 AM 50.6°F10.3°C 48.1°F8.9°C 91% 1.0 mph W1.6 kmh W 3.0 mph4.8 kmh 30.24 in1024.0 mb 0.00 in0.0 mm 0.00 in0.0 mm 0.00 in0.0 mm
03:20 AM 50.7°F10.4°C 48.5°F9.2°C 92% 2.0 mph W3.2 kmh W 3.0 mph4.8 kmh 30.24 in1024.0 mb 0.00 in0.0 mm 0.00 in0.0 mm 0.00 in0.0 mm
03:30 AM 50.8°F10.4°C 48.6°F9.2°C 92% 2.0 mph W3.2 kmh W 3.0 mph4.8 kmh 30.24 in1024.0 mb 0.00 in0.0 mm 0.00 in0.0 mm 0.00 in0.0 mm
03:40 AM 51.4°F10.8°C 49.2°F9.6°C 92% 1.0 mph W1.6 kmh W 3.0 mph4.8 kmh 30.24 in1024.0 mb 0.00 in0.0 mm 0.00 in0.0 mm 0.00 in0.0 mm
03:50 AM 51.7°F10.9°C 49.2°F9.6°C 91% 3.0 mph W4.8 kmh W 3.0 mph4.8 kmh 30.25 in1024.4 mb 0.00 in0.0 mm 0.00 in0.0 mm 0.00 in0.0 mm
04:00 AM 51.4°F10.8°C 48.9°F9.4°C 91% 1.0 mph W1.6 kmh W 2.0 mph3.2 kmh 30.25 in1024.4 mb 0.00 in0.0 mm 0.00 in0.0 mm 0.00 in0.0 mm
04:10 AM 51.5°F10.8°C 49.0°F9.4°C 91% 2.0 mph W3.2 kmh W 3.0 mph4.8 kmh 30.25 in1024.4 mb - 0.00 in0.0 mm 0.00 in0.0 mm
04:20 AM 51.9°F11.1°C 49.4°F9.7°C 91% 2.0 mph W3.2 kmh W 6.0 mph9.7 kmh 30.25 in1024.4 mb - 0.00 in0.0 mm 0.00 in0.0 mm
04:30 AM 51.9°F11.1°C 49.4°F9.7°C 91% 1.0 mph W1.6 kmh W 2.0 mph3.2 kmh 30.25 in1024.4 mb - 0.00 in0.0 mm 0.00 in0.0 mm
04:40 AM 51.8°F11.0°C 49.3°F9.6°C 91% 2.0 mph W3.2 kmh W 6.0 mph9.7 kmh 30.25 in1024.4 mb - 0.00 in0.0 mm 0.00 in0.0 mm
04:50 AM 51.8°F11.0°C 49.3°F9.6°C 91% 2.0 mph W3.2 kmh W 3.0 mph4.8 kmh 30.25 in1024.4 mb - 0.00 in0.0 mm 0.00 in0.0 mm
05:00 AM 51.9°F11.1°C 49.6°F9.8°C 92% 2.0 mph W3.2 kmh W 3.0 mph4.8 kmh 30.25 in1024.4 mb - 0.00 in0.0 mm 0.00 in0.0 mm
05:10 AM 52.1°F11.2°C 49.8°F9.9°C 92% 2.0 mph W3.2 kmh W 3.0 mph4.8 kmh 30.25 in1024.4 mb - 0.00 in0.0 mm 0.00 in0.0 mm
05:20 AM 52.2°F11.2°C 49.9°F9.9°C 92% 1.0 mph W1.6 kmh W 3.0 mph4.8 kmh 30.25 in1024.4 mb - 0.00 in0.0 mm 0.00 in0.0 mm
05:30 AM 52.2°F11.2°C 50.0°F10.0°C 92% 3.0 mph W4.8 kmh W 3.0 mph4.8 kmh 30.25 in1024.4 mb - 0.00 in0.0 mm 0.00 in0.0 mm
05:40 AM 52.3°F11.3°C 50.0°F10.0°C 92% 2.0 mph W3.2 kmh W 3.0 mph4.8 kmh 30.25 in1024.4 mb - 0.00 in0.0 mm 0.00 in0.0 mm
05:50 AM 52.5°F11.4°C 50.5°F10.3°C 93% 2.0 mph W3.2 kmh W 3.0 mph4.8 kmh 30.26 in1024.7 mb - 0.00 in0.0 mm 0.00 in0.0 mm
06:00 AM 52.7°F11.5°C 50.8°F10.4°C 93% 1.0 mph W1.6 kmh W 2.0 mph3.2 kmh 30.26 in1024.7 mb - 0.00 in0.0 mm 0.00 in0.0 mm
06:10 AM 53.6°F12.0°C 51.6°F10.9°C 93% 1.0 mph W1.6 kmh W 3.0 mph4.8 kmh 30.26 in1024.7 mb - 0.00 in0.0 mm 0.00 in0.0 mm
06:20 AM 58.2°F14.6°C 55.3°F12.9°C 90% 2.0 mph W3.2 kmh W 3.0 mph4.8 kmh 30.26 in1024.7 mb - 0.00 in0.0 mm 0.00 in0.0 mm
06:30 AM 61.1°F16.2°C 54.9°F12.7°C 80% 3.0 mph W4.8 kmh W 6.0 mph9.7 kmh 30.26 in1024.7 mb - 0.00 in0.0 mm 0.00 in0.0 mm
06:40 AM 63.0°F17.2°C 55.3°F12.9°C 76% 3.0 mph W4.8 kmh W 6.0 mph9.7 kmh 30.26 in1024.7 mb - 0.00 in0.0 mm 0.00 in0.0 mm
06:50 AM 63.9°F17.7°C 55.0°F12.8°C 73% 3.0 mph W4.8 kmh W 7.0 mph11.3 kmh 30.26 in1024.7 mb - 0.00 in0.0 mm 0.00 in0.0 mm
07:00 AM 65.1°F18.4°C 55.5°F13.1°C 71% 6.0 mph W9.7 kmh W 8.0 mph12.9 kmh 30.26 in1024.7 mb - 0.00 in0.0 mm 0.00 in0.0 mm
07:10 AM 65.3°F18.5°C 55.3°F12.9°C 70% 7.0 mph NW11.3 kmh NW 9.0 mph14.5 kmh 30.26 in1024.7 mb - 0.00 in0.0 mm 0.00 in0.0 mm
07:20 AM 66.0°F18.9°C 55.1°F12.8°C 68% 6.0 mph WNW9.7 kmh WNW 9.0 mph14.5 kmh 30.27 in1025.1 mb - 0.00 in0.0 mm 0.00 in0.0 mm
07:30 AM 67.0°F19.4°C 55.7°F13.2°C 67% 3.0 mph WNW4.8 kmh WNW 12.0 mph19.3 kmh 30.27 in1025.1 mb - 0.00 in0.0 mm 0.00 in0.0 mm
07:40 AM 67.0°F19.4°C 55.6°F13.1°C 67% 5.0 mph WNW8.0 kmh WNW 7.0 mph11.3 kmh 30.27 in1025.1 mb - 0.00 in0.0 mm 0.00 in0.0 mm
07:50 AM 67.6°F19.8°C 55.8°F13.2°C 66% 3.0 mph NW4.8 kmh NW 5.0 mph8.0 kmh 30.27 in1025.1 mb - 0.00 in0.0 mm 0.00 in0.0 mm
08:00 AM 69.6°F20.9°C 56.8°F13.8°C 64% 1.0 mph WNW1.6 kmh WNW 3.0 mph4.8 kmh 30.27 in1025.1 mb - 0.00 in0.0 mm 0.00 in0.0 mm
08:10 AM 70.0°F21.1°C 55.9°F13.3°C 61% 3.0 mph NW4.8 kmh NW 3.0 mph4.8 kmh 30.27 in1025.1 mb - 0.00 in0.0 mm 0.00 in0.0 mm
08:20 AM 70.3°F21.3°C 56.7°F13.7°C 62% 3.0 mph N4.8 kmh N 5.0 mph8.0 kmh 30.27 in1025.1 mb - 0.00 in0.0 mm 0.00 in0.0 mm
08:30 AM 71.0°F21.7°C 56.4°F13.6°C 60% 2.0 mph NW3.2 kmh NW 3.0 mph4.8 kmh 30.27 in1025.1 mb - 0.00 in0.0 mm 0.00 in0.0 mm
08:40 AM 71.3°F21.8°C 55.7°F13.2°C 58% 5.0 mph NW8.0 kmh NW 12.0 mph19.3 kmh 30.27 in1025.1 mb - 0.00 in0.0 mm 0.00 in0.0 mm
08:50 AM 73.3°F22.9°C 55.6°F13.1°C 54% 6.0 mph NW9.7 kmh NW 10.0 mph16.1 kmh 30.27 in1025.1 mb - 0.00 in0.0 mm 0.00 in0.0 mm
09:00 AM 72.4°F22.4°C 55.8°F13.2°C 56% 7.0 mph W11.3 kmh W 10.0 mph16.1 kmh 30.27 in1025.1 mb - 0.00 in0.0 mm 0.00 in0.0 mm
09:10 AM 72.0°F22.2°C 55.4°F13.0°C 56% 7.0 mph W11.3 kmh W 9.0 mph14.5 kmh 30.27 in1025.1 mb - 0.00 in0.0 mm 0.00 in0.0 mm
09:20 AM 71.0°F21.7°C 55.5°F13.1°C 58% 7.0 mph WNW11.3 kmh WNW 10.0 mph16.1 kmh 30.27 in1025.1 mb - 0.00 in0.0 mm 0.00 in0.0 mm
09:30 AM 72.2°F22.3°C 57.1°F13.9°C 59% 3.0 mph W4.8 kmh W 7.0 mph11.3 kmh 30.27 in1025.1 mb - 0.00 in0.0 mm 0.00 in0.0 mm
09:40 AM 72.1°F22.3°C 56.5°F13.6°C 58% 2.0 mph NW3.2 kmh NW 3.0 mph4.8 kmh 30.27 in1025.1 mb - 0.00 in0.0 mm 0.00 in0.0 mm
09:50 AM 74.7°F23.7°C 56.9°F13.8°C 54% 6.0 mph NW9.7 kmh NW 9.0 mph14.5 kmh 30.27 in1025.1 mb - 0.00 in0.0 mm 0.00 in0.0 mm
10:00 AM 71.0°F21.7°C 55.0°F12.8°C 57% 6.0 mph W9.7 kmh W 9.0 mph14.5 kmh 30.26 in1024.7 mb - 0.00 in0.0 mm 0.00 in0.0 mm
10:10 AM 70.4°F21.3°C 54.4°F12.4°C 57% 6.0 mph NW9.7 kmh NW 9.0 mph14.5 kmh 30.26 in1024.7 mb - 0.00 in0.0 mm 0.00 in0.0 mm
10:20 AM 73.6°F23.1°C 55.9°F13.3°C 54% 1.0 mph WNW1.6 kmh WNW 6.0 mph9.7 kmh 30.26 in1024.7 mb - 0.00 in0.0 mm 0.00 in0.0 mm
10:30 AM 74.6°F23.7°C 56.3°F13.5°C 53% 7.0 mph W11.3 kmh W 12.0 mph19.3 kmh 30.26 in1024.7 mb - 0.00 in0.0 mm 0.00 in0.0 mm
10:40 AM 71.8°F22.1°C 54.3°F12.4°C 54% 2.0 mph NW3.2 kmh NW 3.0 mph4.8 kmh 30.26 in1024.7 mb - 0.00 in0.0 mm 0.00 in0.0 mm
10:50 AM 73.7°F23.2°C 56.5°F13.6°C 55% 3.0 mph NW4.8 kmh NW 9.0 mph14.5 kmh 30.26 in1024.7 mb - 0.00 in0.0 mm 0.00 in0.0 mm
11:00 AM 72.3°F22.4°C 56.7°F13.7°C 58% 2.0 mph WNW3.2 kmh WNW 7.0 mph11.3 kmh 30.26 in1024.7 mb - 0.00 in0.0 mm 0.00 in0.0 mm
11:10 AM 72.5°F22.5°C 55.9°F13.3°C 56% 7.0 mph WNW11.3 kmh WNW 9.0 mph14.5 kmh 30.26 in1024.7 mb - 0.00 in0.0 mm 0.00 in0.0 mm
11:15 AM 32.2°F0.1°C 30.4°F-0.9°C 93% Calm Calm -- 30.29 in1025.7 mb - 0.00 in0.0 mm 0.00 in0.0 mm
11:20 AM 69.5°F20.8°C 55.0°F12.8°C 60% 2.0 mph NW3.2 kmh NW 7.0 mph11.3 kmh 30.26 in1024.7 mb - 0.00 in0.0 mm 0.00 in0.0 mm
11:30 AM 73.7°F23.2°C 54.4°F12.4°C 51% 3.0 mph NW4.8 kmh NW 6.0 mph9.7 kmh 30.26 in1024.7 mb - 0.00 in0.0 mm 0.00 in0.0 mm
11:40 AM 75.6°F24.2°C 56.7°F13.7°C 52% 8.0 mph W12.9 kmh W 10.0 mph16.1 kmh 30.26 in1024.7 mb - 0.00 in0.0 mm 0.00 in0.0 mm
11:50 AM 75.1°F23.9°C 55.2°F12.9°C 50% 5.0 mph NW8.0 kmh NW 7.0 mph11.3 kmh 30.25 in1024.4 mb - 0.00 in0.0 mm 0.00 in0.0 mm
12:00 PM 76.0°F24.4°C 57.6°F14.2°C 53% 2.0 mph N3.2 kmh N 5.0 mph8.0 kmh 30.25 in1024.4 mb - 0.00 in0.0 mm 0.00 in0.0 mm
12:10 PM 73.2°F22.9°C 55.0°F12.8°C 53% 1.0 mph NNW1.6 kmh NNW 2.0 mph3.2 kmh 30.25 in1024.4 mb - 0.00 in0.0 mm 0.00 in0.0 mm
12:20 PM 76.4°F24.7°C 55.8°F13.2°C 49% 6.0 mph WNW9.7 kmh WNW 10.0 mph16.1 kmh 30.25 in1024.4 mb - 0.00 in0.0 mm 0.00 in0.0 mm
12:30 PM 73.7°F23.2°C 55.5°F13.1°C 53% 3.0 mph WNW4.8 kmh WNW 3.0 mph4.8 kmh 30.25 in1024.4 mb - 0.00 in0.0 mm 0.00 in0.0 mm
12:40 PM 77.2°F25.1°C 56.0°F13.3°C 48% 5.0 mph WNW8.0 kmh WNW 13.0 mph20.9 kmh 30.24 in1024.0 mb - 0.00 in0.0 mm 0.00 in0.0 mm
12:50 PM 77.2°F25.1°C 57.7°F14.3°C 51% 3.0 mph NNW4.8 kmh NNW 3.0 mph4.8 kmh 30.24 in1024.0 mb - 0.00 in0.0 mm 0.00 in0.0 mm
01:00 PM 78.2°F25.7°C 55.1°F12.8°C 45% 5.0 mph NW8.0 kmh NW 8.0 mph12.9 kmh 30.24 in1024.0 mb - 0.00 in0.0 mm 0.00 in0.0 mm
01:10 PM 77.9°F25.5°C 55.4°F13.0°C 46% 2.0 mph NW3.2 kmh NW 8.0 mph12.9 kmh 30.24 in1024.0 mb - 0.00 in0.0 mm 0.00 in0.0 mm
01:20 PM 78.3°F25.7°C 55.8°F13.2°C 46% 3.0 mph W4.8 kmh W 7.0 mph11.3 kmh 30.24 in1024.0 mb - 0.00 in0.0 mm 0.00 in0.0 mm
01:30 PM 77.6°F25.3°C 55.8°F13.2°C 47% 2.0 mph NW3.2 kmh NW 3.0 mph4.8 kmh 30.24 in1024.0 mb - 0.00 in0.0 mm 0.00 in0.0 mm
01:40 PM 76.6°F24.8°C 54.2°F12.3°C 46% 3.0 mph NW4.8 kmh NW 3.0 mph4.8 kmh 30.24 in1024.0 mb - 0.00 in0.0 mm 0.00 in0.0 mm
01:50 PM 76.9°F24.9°C 56.3°F13.5°C 49% 7.0 mph W11.3 kmh W 10.0 mph16.1 kmh 30.23 in1023.7 mb - 0.00 in0.0 mm 0.00 in0.0 mm
02:00 PM 76.8°F24.9°C 56.2°F13.4°C 49% Calm Calm 2.0 mph3.2 kmh 30.23 in1023.7 mb - 0.00 in0.0 mm 0.00 in0.0 mm
02:10 PM 78.0°F25.6°C 55.6°F13.1°C 46% 2.0 mph NW3.2 kmh NW 2.0 mph3.2 kmh 30.23 in1023.7 mb - 0.00 in0.0 mm 0.00 in0.0 mm
02:20 PM 77.7°F25.4°C 55.2°F12.9°C 46% 2.0 mph ENE3.2 kmh ENE 3.0 mph4.8 kmh 30.23 in1023.7 mb - 0.00 in0.0 mm 0.00 in0.0 mm
02:30 PM 76.7°F24.8°C 54.3°F12.4°C 46% 3.0 mph NW4.8 kmh NW 5.0 mph8.0 kmh 30.23 in1023.7 mb - 0.00 in0.0 mm 0.00 in0.0 mm
02:40 PM 78.4°F25.8°C 57.1°F13.9°C 48% 3.0 mph WSW4.8 kmh WSW 6.0 mph9.7 kmh 30.22 in1023.4 mb - 0.00 in0.0 mm 0.00 in0.0 mm
02:50 PM 79.9°F26.6°C 56.0°F13.3°C 44% Calm Calm 1.0 mph1.6 kmh 30.22 in1023.4 mb - 0.00 in0.0 mm 0.00 in0.0 mm
03:00 PM 78.1°F25.6°C 54.4°F12.4°C 44% 3.0 mph NW4.8 kmh NW 5.0 mph8.0 kmh 30.22 in1023.4 mb - 0.00 in0.0 mm 0.00 in0.0 mm
03:10 PM 75.5°F24.2°C 54.5°F12.5°C 48% 1.0 mph NW1.6 kmh NW 3.0 mph4.8 kmh 30.22 in1023.4 mb - 0.00 in0.0 mm 0.00 in0.0 mm
03:20 PM 76.9°F24.9°C 55.2°F12.9°C 47% 1.0 mph N1.6 kmh N 3.0 mph4.8 kmh 30.22 in1023.4 mb - 0.00 in0.0 mm 0.00 in0.0 mm
03:30 PM 78.0°F25.6°C 55.5°F13.1°C 46% 1.0 mph NW1.6 kmh NW 2.0 mph3.2 kmh 30.22 in1023.4 mb - 0.00 in0.0 mm 0.00 in0.0 mm
03:40 PM 79.4°F26.3°C 55.6°F13.1°C 44% 3.0 mph NW4.8 kmh NW 5.0 mph8.0 kmh 30.22 in1023.4 mb - 0.00 in0.0 mm 0.00 in0.0 mm
03:50 PM 80.2°F26.8°C 55.7°F13.2°C 43% Calm Calm 2.0 mph3.2 kmh 30.22 in1023.4 mb - 0.00 in0.0 mm 0.00 in0.0 mm
04:00 PM 80.5°F26.9°C 55.9°F13.3°C 43% 5.0 mph WSW8.0 kmh WSW 8.0 mph12.9 kmh 30.22 in1023.4 mb - 0.00 in0.0 mm 0.00 in0.0 mm
04:10 PM 78.2°F25.7°C 56.3°F13.5°C 47% 6.0 mph NW9.7 kmh NW 9.0 mph14.5 kmh 30.22 in1023.4 mb - 0.00 in0.0 mm 0.00 in0.0 mm
04:20 PM 79.8°F26.6°C 55.3°F12.9°C 43% 3.0 mph NW4.8 kmh NW 6.0 mph9.7 kmh 30.21 in1023.0 mb - 0.00 in0.0 mm 0.00 in0.0 mm
04:30 PM 79.8°F26.6°C 54.6°F12.6°C 42% 3.0 mph NNW4.8 kmh NNW 5.0 mph8.0 kmh 30.21 in1023.0 mb - 0.00 in0.0 mm 0.00 in0.0 mm
04:40 PM 79.4°F26.3°C 55.0°F12.8°C 43% 5.0 mph NW8.0 kmh NW 8.0 mph12.9 kmh 30.21 in1023.0 mb - 0.00 in0.0 mm 0.00 in0.0 mm
04:50 PM 80.5°F26.9°C 56.5°F13.6°C 44% 7.0 mph W11.3 kmh W 8.0 mph12.9 kmh 30.21 in1023.0 mb - 0.00 in0.0 mm 0.00 in0.0 mm
05:00 PM 79.4°F26.3°C 55.6°F13.1°C 44% 6.0 mph WNW9.7 kmh WNW 12.0 mph19.3 kmh 30.21 in1023.0 mb - 0.00 in0.0 mm 0.00 in0.0 mm
05:10 PM 79.1°F26.2°C 55.3°F12.9°C 44% 5.0 mph NW8.0 kmh NW 7.0 mph11.3 kmh 30.21 in1023.0 mb - 0.00 in0.0 mm 0.00 in0.0 mm
05:20 PM 78.3°F25.7°C 54.0°F12.2°C 43% 3.0 mph NW4.8 kmh NW 5.0 mph8.0 kmh 30.21 in1023.0 mb - 0.00 in0.0 mm 0.00 in0.0 mm
05:30 PM 77.6°F25.3°C 55.2°F12.9°C 46% 3.0 mph WNW4.8 kmh WNW 7.0 mph11.3 kmh 30.21 in1023.0 mb - 0.00 in0.0 mm 0.00 in0.0 mm
05:40 PM 76.6°F24.8°C 54.9°F12.7°C 47% 2.0 mph NW3.2 kmh NW 3.0 mph4.8 kmh 30.21 in1023.0 mb - 0.00 in0.0 mm 0.00 in0.0 mm
05:50 PM 76.7°F24.8°C 55.5°F13.1°C 48% 2.0 mph NW3.2 kmh NW 7.0 mph11.3 kmh 30.20 in1022.7 mb - 0.00 in0.0 mm 0.00 in0.0 mm
06:00 PM 76.8°F24.9°C 55.6°F13.1°C 48% 1.0 mph WNW1.6 kmh WNW 1.0 mph1.6 kmh 30.20 in1022.7 mb - 0.00 in0.0 mm 0.00 in0.0 mm
06:10 PM 76.5°F24.7°C 54.8°F12.7°C 47% 3.0 mph NW4.8 kmh NW 6.0 mph9.7 kmh 30.20 in1022.7 mb - 0.00 in0.0 mm 0.00 in0.0 mm
06:20 PM 75.9°F24.4°C 54.2°F12.3°C 47% 3.0 mph NW4.8 kmh NW 5.0 mph8.0 kmh 30.20 in1022.7 mb - 0.00 in0.0 mm 0.00 in0.0 mm
06:30 PM 75.8°F24.3°C 54.7°F12.6°C 48% 2.0 mph NW3.2 kmh NW 5.0 mph8.0 kmh 30.20 in1022.7 mb - 0.00 in0.0 mm 0.00 in0.0 mm
06:40 PM 75.2°F24.0°C 55.8°F13.2°C 51% 1.0 mph NW1.6 kmh NW 3.0 mph4.8 kmh 30.20 in1022.7 mb - 0.00 in0.0 mm 0.00 in0.0 mm
06:50 PM 73.8°F23.2°C 56.1°F13.4°C 54% 3.0 mph N4.8 kmh N 5.0 mph8.0 kmh 30.20 in1022.7 mb - 0.00 in0.0 mm 0.00 in0.0 mm
07:00 PM 72.9°F22.7°C 55.8°F13.2°C 55% Calm Calm -- 30.20 in1022.7 mb - 0.00 in0.0 mm 0.00 in0.0 mm
07:10 PM 72.1°F22.3°C 56.5°F13.6°C 58% Calm Calm 1.0 mph1.6 kmh 30.20 in1022.7 mb - 0.00 in0.0 mm 0.00 in0.0 mm
07:20 PM 71.5°F21.9°C 56.9°F13.8°C 60% Calm Calm -- 30.20 in1022.7 mb - 0.00 in0.0 mm 0.00 in0.0 mm
07:30 PM 70.8°F21.6°C 57.1°F13.9°C 62% Calm Calm 2.0 mph3.2 kmh 30.20 in1022.7 mb - 0.00 in0.0 mm 0.00 in0.0 mm
07:40 PM 69.9°F21.1°C 57.1°F13.9°C 64% Calm Calm -- 30.20 in1022.7 mb - 0.00 in0.0 mm 0.00 in0.0 mm
07:50 PM 69.2°F20.7°C 56.5°F13.6°C 64% Calm Calm -- 30.20 in1022.7 mb - 0.00 in0.0 mm 0.00 in0.0 mm
08:00 PM 68.6°F20.3°C 56.0°F13.3°C 64% Calm Calm -- 30.21 in1023.0 mb - 0.00 in0.0 mm 0.00 in0.0 mm
08:10 PM 68.1°F20.1°C 56.3°F13.5°C 66% Calm Calm -- 30.21 in1023.0 mb 0.00 in0.0 mm 0.00 in0.0 mm 0.00 in0.0 mm
08:20 PM 67.5°F19.7°C 56.1°F13.4°C 67% Calm Calm -- 30.21 in1023.0 mb 0.00 in0.0 mm 0.00 in0.0 mm 0.00 in0.0 mm
08:30 PM 66.1°F18.9°C 56.0°F13.3°C 70% Calm Calm -- 30.21 in1023.0 mb 0.00 in0.0 mm 0.00 in0.0 mm 0.00 in0.0 mm
08:40 PM 65.4°F18.6°C 55.7°F13.2°C 71% Calm Calm -- 30.21 in1023.0 mb 0.00 in0.0 mm 0.00 in0.0 mm 0.00 in0.0 mm
08:50 PM 64.7°F18.2°C 56.3°F13.5°C 74% Calm Calm -- 30.21 in1023.0 mb 0.00 in0.0 mm 0.00 in0.0 mm 0.00 in0.0 mm
09:00 PM 64.0°F17.8°C 56.6°F13.7°C 77% Calm Calm -- 30.22 in1023.4 mb 0.00 in0.0 mm 0.00 in0.0 mm 0.00 in0.0 mm
09:10 PM 63.6°F17.6°C 56.3°F13.5°C 77% Calm Calm -- 30.22 in1023.4 mb 0.00 in0.0 mm 0.00 in0.0 mm 0.00 in0.0 mm
09:20 PM 63.3°F17.4°C 56.3°F13.5°C 78% Calm Calm -- 30.22 in1023.4 mb 0.00 in0.0 mm 0.00 in0.0 mm 0.00 in0.0 mm
09:30 PM 62.9°F17.2°C 56.6°F13.7°C 80% Calm Calm -- 30.22 in1023.4 mb 0.00 in0.0 mm 0.00 in0.0 mm 0.00 in0.0 mm
09:40 PM 62.2°F16.8°C 56.3°F13.5°C 81% Calm Calm -- 30.22 in1023.4 mb 0.00 in0.0 mm 0.00 in0.0 mm 0.00 in0.0 mm
09:50 PM 61.8°F16.6°C 56.3°F13.5°C 82% Calm Calm -- 30.22 in1023.4 mb 0.00 in0.0 mm 0.00 in0.0 mm 0.00 in0.0 mm
10:00 PM 61.2°F16.2°C 56.0°F13.3°C 83% Calm Calm -- 30.23 in1023.7 mb 0.00 in0.0 mm 0.00 in0.0 mm 0.00 in0.0 mm
10:10 PM 60.5°F15.8°C 55.6°F13.1°C 84% Calm Calm -- 30.23 in1023.7 mb 0.00 in0.0 mm 0.00 in0.0 mm 0.00 in0.0 mm
10:20 PM 59.8°F15.4°C 55.6°F13.1°C 86% Calm Calm -- 30.23 in1023.7 mb 0.00 in0.0 mm 0.00 in0.0 mm 0.00 in0.0 mm
10:30 PM 59.4°F15.2°C 55.5°F13.1°C 87% Calm Calm -- 30.23 in1023.7 mb 0.00 in0.0 mm 0.00 in0.0 mm 0.00 in0.0 mm
10:40 PM 59.1°F15.1°C 55.2°F12.9°C 87% Calm Calm 2.0 mph3.2 kmh 30.24 in1024.0 mb 0.00 in0.0 mm 0.00 in0.0 mm 0.00 in0.0 mm
10:50 PM 58.6°F14.8°C 54.7°F12.6°C 87% Calm Calm -- 30.23 in1023.7 mb 0.00 in0.0 mm 0.00 in0.0 mm 0.00 in0.0 mm
11:00 PM 58.6°F14.8°C 54.7°F12.6°C 87% Calm Calm -- 30.23 in1023.7 mb 0.00 in0.0 mm 0.00 in0.0 mm 0.00 in0.0 mm
11:10 PM 58.6°F14.8°C 54.7°F12.6°C 87% 1.0 mph NNE1.6 kmh NNE 1.0 mph1.6 kmh 30.24 in1024.0 mb 0.00 in0.0 mm 0.00 in0.0 mm 0.00 in0.0 mm
11:20 PM 58.4°F14.7°C 54.5°F12.5°C 87% Calm Calm 2.0 mph3.2 kmh 30.24 in1024.0 mb 0.00 in0.0 mm 0.00 in0.0 mm 0.00 in0.0 mm
11:30 PM 58.1°F14.5°C 54.6°F12.6°C 88% Calm Calm -- 30.23 in1023.7 mb 0.00 in0.0 mm 0.00 in0.0 mm 0.00 in0.0 mm
11:40 PM 57.9°F14.4°C 54.4°F12.4°C 88% Calm Calm 1.0 mph1.6 kmh 30.23 in1023.7 mb 0.00 in0.0 mm 0.00 in0.0 mm 0.00 in0.0 mm
11:50 PM 57.6°F14.2°C 54.4°F12.4°C 89% Calm Calm -- 30.23 in1023.7 mb 0.00 in0.0 mm 0.00 in0.0 mm 0.00 in0.0 mm